Toronto, South Dakota
Current Conditions -  °F | °C
As of 8:14 AM on Monday 26 Jan 2015 (Local Time) from KCNB Reporting Station
Clear Clear  
Wind Chill: 30°   Ceiling: Unl
Heat Index: 37°   Visibility: 10mi
Dew Point: 32°   Wind: 10mph
Humidity: 83%   Direction: 290°WNW
Pressure: 29.78"   Gusts: NA
Location:  44.57°N, 96.64°W
Report Text: KCNB 261414Z AUTO 29009KT 10SM CLR 03/00 A2978 RMK AO2 T00280001
Loading
Personal Weather Stations






























Interactive Weather Map New forecast layout! Learn more

10-Day Weather Forecast

Advertisements
Track Severe Weather on mobile